Capitol Logistics 1152


ESSA
Arlanda
Stockholm, SE
EBLG
Liège Airport
Liege, BE

Activity Log

Date Flight Route Aircraft Duration
04/03/2020 CPX1152 NOSL5G NOSLI N850 LBV M170 OSN Y348 DOMEG Y841 IRBUP Z717 NEREL T884 AGENI T855 LNO LNO4X B738 2h 14m

Route Details

Aircraft Information
Primary: Boeing 737-800BCF
Backup: Not Available
Route Data
Distance: 689nm
Sched. Duration: 2h 00m
Avg. Duration: 2h 14m (+15m)
Times Flown: 1
Recm'd Route: Not Available
Planned Altitude: 36,000ft
Origin Wx: ESSA 220950Z 31006KT 9999 -RA OVC003 10/10 Q0991 NOSIG
Dest. Wx: EBLG 220950Z 19010KT 9999 SCT012 BKN020 16/13 Q1013 NOSIG
Notes:

Financial History
Total Freight: 16,896lbs
Average Load: 16,896lbs/flt
Fuel Used: 9,525lbs
Avg. Fuel Used: 9,525lbs/flt
Fuel Expense: $7,620
Avg. Fuel Expense: $7,620
Avg. Fuel Cost: $0.80/lbs
Total Gross Income: $40,888
Pilot Pay: $99
Total Expenses: $4,468
Total Revenue: $28,588
Average Revenue: $40,888.32